sensor_id;sensor_type;location;lat;lon;timestamp;temperature;humidity
42489;DHT22;28118;52.388;9.452;2022-07-23T00:00:15;15.00;99.90
42489;DHT22;28118;52.388;9.452;2022-07-23T00:02:42;15.00;99.90
42489;DHT22;28118;52.388;9.452;2022-07-23T00:05:09;15.00;99.90
42489;DHT22;28118;52.388;9.452;2022-07-23T00:07:37;15.00;99.90
42489;DHT22;28118;52.388;9.452;2022-07-23T00:10:04;14.90;99.90
42489;DHT22;28118;52.388;9.452;2022-07-23T00:12:31;14.90;99.90
42489;DHT22;28118;52.388;9.452;2022-07-23T00:14:58;14.90;99.90
42489;DHT22;28118;52.388;9.452;2022-07-23T00:17:24;14.90;99.90
42489;DHT22;28118;52.388;9.452;2022-07-23T00:19:51;14.90;99.90
42489;DHT22;28118;52.388;9.452;2022-07-23T00:22:19;14.80;99.90
42489;DHT22;28118;52.388;9.452;2022-07-23T00:24:46;14.80;99.90
42489;DHT22;28118;52.388;9.452;2022-07-23T00:27:32;14.70;99.90
42489;DHT22;28118;52.388;9.452;2022-07-23T00:29:59;14.70;99.90
42489;DHT22;28118;52.388;9.452;2022-07-23T00:32:25;14.60;99.90
42489;DHT22;28118;52.388;9.452;2022-07-23T00:35:12;14.70;99.90
42489;DHT22;28118;52.388;9.452;2022-07-23T00:37:39;14.60;99.90
42489;DHT22;28118;52.388;9.452;2022-07-23T00:40:06;14.60;99.90
42489;DHT22;28118;52.388;9.452;2022-07-23T00:42:33;14.50;99.90
42489;DHT22;28118;52.388;9.452;2022-07-23T00:44:59;14.40;99.90
42489;DHT22;28118;52.388;9.452;2022-07-23T00:47:26;14.40;99.90
42489;DHT22;28118;52.388;9.452;2022-07-23T00:49:53;14.40;99.90
42489;DHT22;28118;52.388;9.452;2022-07-23T00:52:19;14.30;99.90
42489;DHT22;28118;52.388;9.452;2022-07-23T00:54:46;14.30;99.90
42489;DHT22;28118;52.388;9.452;2022-07-23T00:57:13;14.30;99.90
42489;DHT22;28118;52.388;9.452;2022-07-23T00:59:40;14.30;99.90
42489;DHT22;28118;52.388;9.452;2022-07-23T01:02:07;14.30;99.90
42489;DHT22;28118;52.388;9.452;2022-07-23T01:04:34;14.30;99.90
42489;DHT22;28118;52.388;9.452;2022-07-23T01:07:01;14.20;99.90
42489;DHT22;28118;52.388;9.452;2022-07-23T01:09:28;14.20;99.90
42489;DHT22;28118;52.388;9.452;2022-07-23T01:11:56;14.20;99.90
42489;DHT22;28118;52.388;9.452;2022-07-23T01:14:23;14.20;99.90
42489;DHT22;28118;52.388;9.452;2022-07-23T01:16:50;14.10;99.90
42489;DHT22;28118;52.388;9.452;2022-07-23T01:19:18;14.20;99.90
42489;DHT22;28118;52.388;9.452;2022-07-23T01:21:47;14.20;99.90
42489;DHT22;28118;52.388;9.452;2022-07-23T01:24:15;14.20;99.90
42489;DHT22;28118;52.388;9.452;2022-07-23T01:26:44;14.20;99.90
42489;DHT22;28118;52.388;9.452;2022-07-23T01:29:11;14.20;99.90
42489;DHT22;28118;52.388;9.452;2022-07-23T01:31:38;14.20;99.90
42489;DHT22;28118;52.388;9.452;2022-07-23T01:34:05;14.20;99.90
42489;DHT22;28118;52.388;9.452;2022-07-23T01:36:34;14.20;99.90
42489;DHT22;28118;52.388;9.452;2022-07-23T01:39:04;14.30;99.90
42489;DHT22;28118;52.388;9.452;2022-07-23T01:41:31;14.20;99.90
42489;DHT22;28118;52.388;9.452;2022-07-23T01:43:58;14.30;99.90
42489;DHT22;28118;52.388;9.452;2022-07-23T01:46:25;14.20;99.90
42489;DHT22;28118;52.388;9.452;2022-07-23T01:48:52;14.20;99.90
42489;DHT22;28118;52.388;9.452;2022-07-23T01:51:19;14.20;99.90
42489;DHT22;28118;52.388;9.452;2022-07-23T01:53:46;14.10;99.90
42489;DHT22;28118;52.388;9.452;2022-07-23T01:56:12;14.10;99.90
42489;DHT22;28118;52.388;9.452;2022-07-23T01:58:41;14.20;99.90
42489;DHT22;28118;52.388;9.452;2022-07-23T02:01:08;14.10;99.90
42489;DHT22;28118;52.388;9.452;2022-07-23T02:03:35;14.20;99.90
42489;DHT22;28118;52.388;9.452;2022-07-23T02:06:01;14.20;99.90
42489;DHT22;28118;52.388;9.452;2022-07-23T02:08:28;14.10;99.90
42489;DHT22;28118;52.388;9.452;2022-07-23T02:10:55;14.10;99.90
42489;DHT22;28118;52.388;9.452;2022-07-23T02:13:22;14.10;99.90
42489;DHT22;28118;52.388;9.452;2022-07-23T02:15:48;14.20;99.90
42489;DHT22;28118;52.388;9.452;2022-07-23T02:18:15;14.20;99.90
42489;DHT22;28118;52.388;9.452;2022-07-23T02:20:42;14.20;99.90
42489;DHT22;28118;52.388;9.452;2022-07-23T02:23:09;14.20;99.90
42489;DHT22;28118;52.388;9.452;2022-07-23T02:25:35;14.10;99.90
42489;DHT22;28118;52.388;9.452;2022-07-23T02:28:02;14.10;99.90
42489;DHT22;28118;52.388;9.452;2022-07-23T02:30:29;14.10;99.90
42489;DHT22;28118;52.388;9.452;2022-07-23T02:32:56;14.00;99.90
42489;DHT22;28118;52.388;9.452;2022-07-23T02:35:23;14.00;99.90
42489;DHT22;28118;52.388;9.452;2022-07-23T02:37:49;14.10;99.90
42489;DHT22;28118;52.388;9.452;2022-07-23T02:40:17;14.10;99.90
42489;DHT22;28118;52.388;9.452;2022-07-23T02:42:44;14.10;99.90
42489;DHT22;28118;52.388;9.452;2022-07-23T02:45:11;14.20;99.90
42489;DHT22;28118;52.388;9.452;2022-07-23T02:47:38;14.30;99.90
42489;DHT22;28118;52.388;9.452;2022-07-23T02:50:05;14.30;99.90
42489;DHT22;28118;52.388;9.452;2022-07-23T02:52:33;14.30;99.90
42489;DHT22;28118;52.388;9.452;2022-07-23T02:55:00;14.30;99.90
42489;DHT22;28118;52.388;9.452;2022-07-23T02:57:26;14.30;99.90
42489;DHT22;28118;52.388;9.452;2022-07-23T02:59:53;14.30;99.90
42489;DHT22;28118;52.388;9.452;2022-07-23T03:02:20;14.30;99.90
42489;DHT22;28118;52.388;9.452;2022-07-23T03:04:46;14.40;99.90
42489;DHT22;28118;52.388;9.452;2022-07-23T03:07:13;14.40;99.90
42489;DHT22;28118;52.388;9.452;2022-07-23T03:09:40;14.50;99.90
42489;DHT22;28118;52.388;9.452;2022-07-23T03:12:07;14.50;99.90
42489;DHT22;28118;52.388;9.452;2022-07-23T03:14:40;14.60;99.90
42489;DHT22;28118;52.388;9.452;2022-07-23T03:17:09;14.60;99.90
42489;DHT22;28118;52.388;9.452;2022-07-23T03:19:36;14.60;99.90
42489;DHT22;28118;52.388;9.452;2022-07-23T03:22:04;14.60;99.90
42489;DHT22;28118;52.388;9.452;2022-07-23T03:24:31;14.70;99.90
42489;DHT22;28118;52.388;9.452;2022-07-23T03:27:16;14.60;99.90
42489;DHT22;28118;52.388;9.452;2022-07-23T03:29:43;14.50;99.90
42489;DHT22;28118;52.388;9.452;2022-07-23T03:32:09;14.60;99.90
42489;DHT22;28118;52.388;9.452;2022-07-23T03:34:36;14.50;99.90
42489;DHT22;28118;52.388;9.452;2022-07-23T03:37:03;14.60;99.90
42489;DHT22;28118;52.388;9.452;2022-07-23T03:39:31;14.60;99.90
42489;DHT22;28118;52.388;9.452;2022-07-23T03:41:58;14.50;99.90
42489;DHT22;28118;52.388;9.452;2022-07-23T03:44:25;14.30;99.90
42489;DHT22;28118;52.388;9.452;2022-07-23T03:46:52;14.30;99.90
42489;DHT22;28118;52.388;9.452;2022-07-23T03:49:18;14.40;99.90
42489;DHT22;28118;52.388;9.452;2022-07-23T03:51:45;14.40;99.90
42489;DHT22;28118;52.388;9.452;2022-07-23T03:54:12;14.30;99.90
42489;DHT22;28118;52.388;9.452;2022-07-23T03:56:39;14.20;99.90
42489;DHT22;28118;52.388;9.452;2022-07-23T03:59:06;14.10;99.90
42489;DHT22;28118;52.388;9.452;2022-07-23T04:01:33;14.10;99.90
42489;DHT22;28118;52.388;9.452;2022-07-23T04:03:59;14.10;99.90
42489;DHT22;28118;52.388;9.452;2022-07-23T04:06:26;14.20;99.90
42489;DHT22;28118;52.388;9.452;2022-07-23T04:08:53;14.20;99.90
42489;DHT22;28118;52.388;9.452;2022-07-23T04:11:20;14.20;99.90
42489;DHT22;28118;52.388;9.452;2022-07-23T04:13:47;14.20;99.90
42489;DHT22;28118;52.388;9.452;2022-07-23T04:16:13;14.20;99.90
42489;DHT22;28118;52.388;9.452;2022-07-23T04:18:40;14.20;99.90
42489;DHT22;28118;52.388;9.452;2022-07-23T04:21:07;14.20;99.90
42489;DHT22;28118;52.388;9.452;2022-07-23T04:23:34;14.30;99.90
42489;DHT22;28118;52.388;9.452;2022-07-23T04:26:00;14.30;99.90
42489;DHT22;28118;52.388;9.452;2022-07-23T04:28:27;14.30;99.90
42489;DHT22;28118;52.388;9.452;2022-07-23T04:30:56;14.40;99.90
42489;DHT22;28118;52.388;9.452;2022-07-23T04:33:24;14.40;99.90
42489;DHT22;28118;52.388;9.452;2022-07-23T04:35:51;14.40;99.90
42489;DHT22;28118;52.388;9.452;2022-07-23T04:38:19;14.40;99.90
42489;DHT22;28118;52.388;9.452;2022-07-23T04:40:45;14.30;99.90
42489;DHT22;28118;52.388;9.452;2022-07-23T04:43:12;14.30;99.90
42489;DHT22;28118;52.388;9.452;2022-07-23T04:45:39;14.30;99.90
42489;DHT22;28118;52.388;9.452;2022-07-23T04:48:06;14.40;99.90
42489;DHT22;28118;52.388;9.452;2022-07-23T04:50:32;14.50;99.90
42489;DHT22;28118;52.388;9.452;2022-07-23T04:52:59;14.50;99.90
42489;DHT22;28118;52.388;9.452;2022-07-23T04:55:26;14.50;99.90
42489;DHT22;28118;52.388;9.452;2022-07-23T04:57:53;14.50;99.90
42489;DHT22;28118;52.388;9.452;2022-07-23T05:00:19;14.50;99.90
42489;DHT22;28118;52.388;9.452;2022-07-23T05:02:46;14.50;99.90
42489;DHT22;28118;52.388;9.452;2022-07-23T05:05:13;14.50;99.90
42489;DHT22;28118;52.388;9.452;2022-07-23T05:07:39;14.50;99.90
42489;DHT22;28118;52.388;9.452;2022-07-23T05:10:06;14.50;99.90
42489;DHT22;28118;52.388;9.452;2022-07-23T05:12:33;14.60;99.90
42489;DHT22;28118;52.388;9.452;2022-07-23T05:15:00;14.60;99.90
42489;DHT22;28118;52.388;9.452;2022-07-23T05:17:26;14.70;99.90
42489;DHT22;28118;52.388;9.452;2022-07-23T05:19:53;14.70;99.90
42489;DHT22;28118;52.388;9.452;2022-07-23T05:22:26;14.80;99.90
42489;DHT22;28118;52.388;9.452;2022-07-23T05:24:53;14.70;99.90
42489;DHT22;28118;52.388;9.452;2022-07-23T05:27:19;14.80;99.90
42489;DHT22;28118;52.388;9.452;2022-07-23T05:29:46;14.90;99.90
42489;DHT22;28118;52.388;9.452;2022-07-23T05:32:13;14.90;99.90
42489;DHT22;28118;52.388;9.452;2022-07-23T05:34:39;14.90;99.90
42489;DHT22;28118;52.388;9.452;2022-07-23T05:37:06;15.00;99.90
42489;DHT22;28118;52.388;9.452;2022-07-23T05:39:33;15.10;99.90
42489;DHT22;28118;52.388;9.452;2022-07-23T05:42:00;15.10;99.90
42489;DHT22;28118;52.388;9.452;2022-07-23T05:44:26;15.20;99.90
42489;DHT22;28118;52.388;9.452;2022-07-23T05:47:00;15.10;99.90
42489;DHT22;28118;52.388;9.452;2022-07-23T05:49:27;15.20;99.90
42489;DHT22;28118;52.388;9.452;2022-07-23T05:51:54;15.20;99.90
42489;DHT22;28118;52.388;9.452;2022-07-23T05:54:20;15.30;99.90
42489;DHT22;28118;52.388;9.452;2022-07-23T05:56:47;15.40;99.90
42489;DHT22;28118;52.388;9.452;2022-07-23T05:59:14;15.40;99.90
42489;DHT22;28118;52.388;9.452;2022-07-23T06:01:41;15.50;99.90
42489;DHT22;28118;52.388;9.452;2022-07-23T06:04:08;15.50;99.90
42489;DHT22;28118;52.388;9.452;2022-07-23T06:06:35;15.70;99.90
42489;DHT22;28118;52.388;9.452;2022-07-23T06:09:02;15.70;99.90
42489;DHT22;28118;52.388;9.452;2022-07-23T06:11:30;15.70;99.90
42489;DHT22;28118;52.388;9.452;2022-07-23T06:13:56;15.80;99.90
42489;DHT22;28118;52.388;9.452;2022-07-23T06:16:23;15.80;99.90
42489;DHT22;28118;52.388;9.452;2022-07-23T06:18:50;15.90;99.90
42489;DHT22;28118;52.388;9.452;2022-07-23T06:21:16;15.90;99.90
42489;DHT22;28118;52.388;9.452;2022-07-23T06:24:03;16.00;99.90
42489;DHT22;28118;52.388;9.452;2022-07-23T06:26:30;16.10;99.90
42489;DHT22;28118;52.388;9.452;2022-07-23T06:28:57;16.10;99.90
42489;DHT22;28118;52.388;9.452;2022-07-23T06:31:24;16.20;99.90
42489;DHT22;28118;52.388;9.452;2022-07-23T06:33:51;16.30;99.90
42489;DHT22;28118;52.388;9.452;2022-07-23T06:36:17;16.30;99.90
42489;DHT22;28118;52.388;9.452;2022-07-23T06:38:44;16.30;99.90
42489;DHT22;28118;52.388;9.452;2022-07-23T06:41:11;16.30;99.90
42489;DHT22;28118;52.388;9.452;2022-07-23T06:43:37;16.40;99.90
42489;DHT22;28118;52.388;9.452;2022-07-23T06:46:04;16.50;99.90
42489;DHT22;28118;52.388;9.452;2022-07-23T06:48:31;16.60;99.90
42489;DHT22;28118;52.388;9.452;2022-07-23T06:51:01;16.70;99.90
42489;DHT22;28118;52.388;9.452;2022-07-23T06:53:28;16.80;99.90
42489;DHT22;28118;52.388;9.452;2022-07-23T06:55:55;16.90;99.90
42489;DHT22;28118;52.388;9.452;2022-07-23T06:58:22;17.00;99.90
42489;DHT22;28118;52.388;9.452;2022-07-23T07:00:49;16.90;99.90
42489;DHT22;28118;52.388;9.452;2022-07-23T07:03:17;17.00;99.90
42489;DHT22;28118;52.388;9.452;2022-07-23T07:05:43;17.10;99.90
42489;DHT22;28118;52.388;9.452;2022-07-23T07:08:10;17.30;99.90
42489;DHT22;28118;52.388;9.452;2022-07-23T07:10:37;17.40;99.90
42489;DHT22;28118;52.388;9.452;2022-07-23T07:13:04;17.60;99.90
42489;DHT22;28118;52.388;9.452;2022-07-23T07:15:30;17.60;99.90
42489;DHT22;28118;52.388;9.452;2022-07-23T07:17:57;17.70;99.90
42489;DHT22;28118;52.388;9.452;2022-07-23T07:20:24;17.90;99.90
42489;DHT22;28118;52.388;9.452;2022-07-23T07:22:50;17.90;99.90
42489;DHT22;28118;52.388;9.452;2022-07-23T07:25:17;17.90;99.90
42489;DHT22;28118;52.388;9.452;2022-07-23T07:27:44;18.30;99.90
42489;DHT22;28118;52.388;9.452;2022-07-23T07:30:12;18.50;99.90
42489;DHT22;28118;52.388;9.452;2022-07-23T07:32:39;18.20;99.90
42489;DHT22;28118;52.388;9.452;2022-07-23T07:35:24;18.10;99.90
42489;DHT22;28118;52.388;9.452;2022-07-23T07:37:50;18.00;99.90
42489;DHT22;28118;52.388;9.452;2022-07-23T07:40:17;18.10;99.90
42489;DHT22;28118;52.388;9.452;2022-07-23T07:42:48;18.00;99.90
42489;DHT22;28118;52.388;9.452;2022-07-23T07:45:15;18.20;99.90
42489;DHT22;28118;52.388;9.452;2022-07-23T07:47:42;18.40;99.90
42489;DHT22;28118;52.388;9.452;2022-07-23T07:50:09;18.90;99.90
42489;DHT22;28118;52.388;9.452;2022-07-23T07:52:38;18.70;99.90
42489;DHT22;28118;52.388;9.452;2022-07-23T07:55:07;18.90;99.90
42489;DHT22;28118;52.388;9.452;2022-07-23T07:57:35;19.00;99.90
42489;DHT22;28118;52.388;9.452;2022-07-23T08:00:03;18.50;99.90
42489;DHT22;28118;52.388;9.452;2022-07-23T08:02:48;18.30;99.90
42489;DHT22;28118;52.388;9.452;2022-07-23T08:05:25;18.40;99.90
42489;DHT22;28118;52.388;9.452;2022-07-23T08:07:55;18.60;99.90
42489;DHT22;28118;52.388;9.452;2022-07-23T08:10:23;18.80;99.90
42489;DHT22;28118;52.388;9.452;2022-07-23T08:12:52;19.00;99.90
42489;DHT22;28118;52.388;9.452;2022-07-23T08:15:25;19.00;99.90
42489;DHT22;28118;52.388;9.452;2022-07-23T08:17:52;19.10;99.90
42489;DHT22;28118;52.388;9.452;2022-07-23T08:20:21;19.00;99.90
42489;DHT22;28118;52.388;9.452;2022-07-23T08:25:29;19.30;99.90
42489;DHT22;28118;52.388;9.452;2022-07-23T08:27:58;19.20;99.90
42489;DHT22;28118;52.388;9.452;2022-07-23T08:30:26;19.20;99.90
42489;DHT22;28118;52.388;9.452;2022-07-23T08:32:54;19.50;99.90
42489;DHT22;28118;52.388;9.452;2022-07-23T08:35:44;19.50;99.90
42489;DHT22;28118;52.388;9.452;2022-07-23T08:38:16;19.90;99.90
42489;DHT22;28118;52.388;9.452;2022-07-23T08:40:54;19.80;99.90
42489;DHT22;28118;52.388;9.452;2022-07-23T08:43:23;20.00;99.90
42489;DHT22;28118;52.388;9.452;2022-07-23T08:45:52;20.30;99.90
42489;DHT22;28118;52.388;9.452;2022-07-23T08:48:21;20.10;99.90
42489;DHT22;28118;52.388;9.452;2022-07-23T08:50:53;19.80;99.90
42489;DHT22;28118;52.388;9.452;2022-07-23T08:53:25;19.50;99.90
42489;DHT22;28118;52.388;9.452;2022-07-23T08:55:54;19.40;99.90
42489;DHT22;28118;52.388;9.452;2022-07-23T08:58:22;19.50;99.90
42489;DHT22;28118;52.388;9.452;2022-07-23T09:00:53;19.90;99.90
42489;DHT22;28118;52.388;9.452;2022-07-23T09:03:23;20.10;99.90
42489;DHT22;28118;52.388;9.452;2022-07-23T09:05:52;20.30;99.90
42489;DHT22;28118;52.388;9.452;2022-07-23T09:08:21;20.00;99.90
42489;DHT22;28118;52.388;9.452;2022-07-23T09:10:59;20.30;99.90
42489;DHT22;28118;52.388;9.452;2022-07-23T09:16:01;19.90;99.90
42489;DHT22;28118;52.388;9.452;2022-07-23T09:18:39;20.00;99.90
42489;DHT22;28118;52.388;9.452;2022-07-23T09:21:21;19.70;99.90
42489;DHT22;28118;52.388;9.452;2022-07-23T09:34:25;20.30;99.90
42489;DHT22;28118;52.388;9.452;2022-07-23T09:36:54;20.10;99.90
42489;DHT22;28118;52.388;9.452;2022-07-23T09:39:30;20.40;99.90
42489;DHT22;28118;52.388;9.452;2022-07-23T09:42:12;20.70;99.90
42489;DHT22;28118;52.388;9.452;2022-07-23T09:44:43;20.90;99.90
42489;DHT22;28118;52.388;9.452;2022-07-23T09:47:10;21.10;99.90
42489;DHT22;28118;52.388;9.452;2022-07-23T09:49:37;21.10;99.90
42489;DHT22;28118;52.388;9.452;2022-07-23T09:52:04;21.00;99.90
42489;DHT22;28118;52.388;9.452;2022-07-23T09:54:32;21.10;99.90
42489;DHT22;28118;52.388;9.452;2022-07-23T09:57:08;21.40;99.90
42489;DHT22;28118;52.388;9.452;2022-07-23T09:59:37;20.70;99.90
42489;DHT22;28118;52.388;9.452;2022-07-23T10:02:06;20.50;99.90
42489;DHT22;28118;52.388;9.452;2022-07-23T10:04:33;20.40;99.90
42489;DHT22;28118;52.388;9.452;2022-07-23T10:07:05;20.20;99.90
42489;DHT22;28118;52.388;9.452;2022-07-23T10:09:36;20.20;99.90
42489;DHT22;28118;52.388;9.452;2022-07-23T10:12:06;20.60;99.90
42489;DHT22;28118;52.388;9.452;2022-07-23T10:14:55;21.50;99.90
42489;DHT22;28118;52.388;9.452;2022-07-23T10:17:22;21.80;99.90
42489;DHT22;28118;52.388;9.452;2022-07-23T10:19:49;21.40;99.90
42489;DHT22;28118;52.388;9.452;2022-07-23T10:22:59;20.60;99.90
42489;DHT22;28118;52.388;9.452;2022-07-23T10:25:51;20.30;99.90
42489;DHT22;28118;52.388;9.452;2022-07-23T10:40:23;21.40;99.90
42489;DHT22;28118;52.388;9.452;2022-07-23T10:42:51;20.90;99.90
42489;DHT22;28118;52.388;9.452;2022-07-23T10:47:50;20.70;99.90
42489;DHT22;28118;52.388;9.452;2022-07-23T10:50:28;21.10;99.90
42489;DHT22;28118;52.388;9.452;2022-07-23T10:53:07;21.60;99.90
42489;DHT22;28118;52.388;9.452;2022-07-23T10:58:03;22.10;99.90
42489;DHT22;28118;52.388;9.452;2022-07-23T11:00:34;22.10;99.30
42489;DHT22;28118;52.388;9.452;2022-07-23T11:03:39;21.50;99.90
42489;DHT22;28118;52.388;9.452;2022-07-23T11:06:06;22.00;99.60
42489;DHT22;28118;52.388;9.452;2022-07-23T11:08:33;22.50;99.90
42489;DHT22;28118;52.388;9.452;2022-07-23T11:13:32;22.20;99.30
42489;DHT22;28118;52.388;9.452;2022-07-23T11:31:59;22.30;98.90
42489;DHT22;28118;52.388;9.452;2022-07-23T11:34:30;22.50;98.80
42489;DHT22;28118;52.388;9.452;2022-07-23T11:36:59;22.50;98.20
42489;DHT22;28118;52.388;9.452;2022-07-23T11:39:27;22.70;97.50
42489;DHT22;28118;52.388;9.452;2022-07-23T11:41:54;23.00;97.70
42489;DHT22;28118;52.388;9.452;2022-07-23T11:47:00;23.20;97.40
42489;DHT22;28118;52.388;9.452;2022-07-23T11:49:27;23.30;97.90
42489;DHT22;28118;52.388;9.452;2022-07-23T11:54:35;24.10;96.80
42489;DHT22;28118;52.388;9.452;2022-07-23T11:57:06;23.60;96.10
42489;DHT22;28118;52.388;9.452;2022-07-23T11:59:34;23.00;97.20
42489;DHT22;28118;52.388;9.452;2022-07-23T12:02:04;24.00;97.10
42489;DHT22;28118;52.388;9.452;2022-07-23T12:04:45;24.20;96.00
42489;DHT22;28118;52.388;9.452;2022-07-23T12:10:10;23.80;95.60
42489;DHT22;28118;52.388;9.452;2022-07-23T12:12:39;23.80;96.10
42489;DHT22;28118;52.388;9.452;2022-07-23T12:15:07;23.40;95.60
42489;DHT22;28118;52.388;9.452;2022-07-23T12:17:37;22.60;97.00
42489;DHT22;28118;52.388;9.452;2022-07-23T12:20:06;23.30;96.70
42489;DHT22;28118;52.388;9.452;2022-07-23T12:22:39;23.80;95.50
42489;DHT22;28118;52.388;9.452;2022-07-23T12:25:16;23.80;95.70
42489;DHT22;28118;52.388;9.452;2022-07-23T12:27:44;23.90;95.20
42489;DHT22;28118;52.388;9.452;2022-07-23T12:30:25;23.80;94.90
42489;DHT22;28118;52.388;9.452;2022-07-23T12:32:59;24.30;94.90
42489;DHT22;28118;52.388;9.452;2022-07-23T12:35:44;24.00;94.00
42489;DHT22;28118;52.388;9.452;2022-07-23T12:38:14;24.10;93.30
42489;DHT22;28118;52.388;9.452;2022-07-23T12:48:31;24.30;93.00
42489;DHT22;28118;52.388;9.452;2022-07-23T12:51:14;24.00;93.50
42489;DHT22;28118;52.388;9.452;2022-07-23T12:53:46;23.80;92.80
42489;DHT22;28118;52.388;9.452;2022-07-23T12:56:18;24.40;92.70
42489;DHT22;28118;52.388;9.452;2022-07-23T12:58:57;24.80;92.90
42489;DHT22;28118;52.388;9.452;2022-07-23T13:01:26;24.70;92.40
42489;DHT22;28118;52.388;9.452;2022-07-23T13:03:59;24.40;92.70
42489;DHT22;28118;52.388;9.452;2022-07-23T13:06:50;24.40;92.70
42489;DHT22;28118;52.388;9.452;2022-07-23T13:09:21;24.50;92.70
42489;DHT22;28118;52.388;9.452;2022-07-23T13:11:49;24.50;92.60
42489;DHT22;28118;52.388;9.452;2022-07-23T13:14:17;24.00;93.10
42489;DHT22;28118;52.388;9.452;2022-07-23T13:16:48;24.60;92.70
42489;DHT22;28118;52.388;9.452;2022-07-23T13:19:16;25.10;92.30
42489;DHT22;28118;52.388;9.452;2022-07-23T13:21:45;24.60;92.00
42489;DHT22;28118;52.388;9.452;2022-07-23T13:24:12;24.60;92.50
42489;DHT22;28118;52.388;9.452;2022-07-23T13:26:39;24.80;91.90
42489;DHT22;28118;52.388;9.452;2022-07-23T13:29:06;24.10;92.60
42489;DHT22;28118;52.388;9.452;2022-07-23T13:31:53;24.80;91.90
42489;DHT22;28118;52.388;9.452;2022-07-23T13:34:20;24.70;91.70
42489;DHT22;28118;52.388;9.452;2022-07-23T13:36:46;24.90;92.00
42489;DHT22;28118;52.388;9.452;2022-07-23T13:39:13;25.60;91.10
42489;DHT22;28118;52.388;9.452;2022-07-23T13:41:40;24.60;91.30
42489;DHT22;28118;52.388;9.452;2022-07-23T13:44:17;24.90;91.20
42489;DHT22;28118;52.388;9.452;2022-07-23T13:46:44;24.60;92.20
42489;DHT22;28118;52.388;9.452;2022-07-23T13:49:13;25.50;92.40
42489;DHT22;28118;52.388;9.452;2022-07-23T13:51:41;26.20;91.00
42489;DHT22;28118;52.388;9.452;2022-07-23T13:54:08;26.40;90.10
42489;DHT22;28118;52.388;9.452;2022-07-23T13:56:35;26.30;89.40
42489;DHT22;28118;52.388;9.452;2022-07-23T13:59:02;26.30;89.80
42489;DHT22;28118;52.388;9.452;2022-07-23T14:01:32;26.00;90.00
42489;DHT22;28118;52.388;9.452;2022-07-23T14:04:16;26.00;89.20
42489;DHT22;28118;52.388;9.452;2022-07-23T14:06:44;26.40;89.10
42489;DHT22;28118;52.388;9.452;2022-07-23T14:09:18;26.40;88.10
42489;DHT22;28118;52.388;9.452;2022-07-23T14:11:45;26.30;88.60
42489;DHT22;28118;52.388;9.452;2022-07-23T14:14:11;25.90;88.20
42489;DHT22;28118;52.388;9.452;2022-07-23T14:16:38;24.70;90.10
42489;DHT22;28118;52.388;9.452;2022-07-23T14:19:05;24.30;91.00
42489;DHT22;28118;52.388;9.452;2022-07-23T14:21:32;24.20;91.10
42489;DHT22;28118;52.388;9.452;2022-07-23T14:23:59;25.10;90.90
42489;DHT22;28118;52.388;9.452;2022-07-23T14:26:26;25.70;90.00
42489;DHT22;28118;52.388;9.452;2022-07-23T14:28:53;26.00;89.70
42489;DHT22;28118;52.388;9.452;2022-07-23T14:31:20;26.60;88.90
42489;DHT22;28118;52.388;9.452;2022-07-23T14:33:48;26.60;87.90
42489;DHT22;28118;52.388;9.452;2022-07-23T14:36:15;26.80;86.90
42489;DHT22;28118;52.388;9.452;2022-07-23T14:38:42;26.10;84.20
42489;DHT22;28118;52.388;9.452;2022-07-23T14:41:09;26.70;86.20
42489;DHT22;28118;52.388;9.452;2022-07-23T14:43:37;26.80;84.20
42489;DHT22;28118;52.388;9.452;2022-07-23T14:46:04;25.90;85.40
42489;DHT22;28118;52.388;9.452;2022-07-23T14:48:31;25.90;86.70
42489;DHT22;28118;52.388;9.452;2022-07-23T14:50:58;26.90;85.40
42489;DHT22;28118;52.388;9.452;2022-07-23T14:53:25;27.00;84.00
42489;DHT22;28118;52.388;9.452;2022-07-23T14:55:51;28.90;83.20
42489;DHT22;28118;52.388;9.452;2022-07-23T14:58:21;30.00;76.90
42489;DHT22;28118;52.388;9.452;2022-07-23T15:00:47;33.30;71.50
42489;DHT22;28118;52.388;9.452;2022-07-23T15:03:14;33.90;66.10
42489;DHT22;28118;52.388;9.452;2022-07-23T15:05:41;34.30;62.30
42489;DHT22;28118;52.388;9.452;2022-07-23T15:08:08;35.70;59.60
42489;DHT22;28118;52.388;9.452;2022-07-23T15:10:35;38.30;54.50
42489;DHT22;28118;52.388;9.452;2022-07-23T15:13:03;35.50;52.50
42489;DHT22;28118;52.388;9.452;2022-07-23T15:15:30;35.20;54.90
42489;DHT22;28118;52.388;9.452;2022-07-23T15:17:57;37.20;52.60
42489;DHT22;28118;52.388;9.452;2022-07-23T15:20:24;38.50;50.50
42489;DHT22;28118;52.388;9.452;2022-07-23T15:23:05;39.00;48.90
42489;DHT22;28118;52.388;9.452;2022-07-23T15:25:34;31.70;54.40
42489;DHT22;28118;52.388;9.452;2022-07-23T15:28:02;33.30;54.60
42489;DHT22;28118;52.388;9.452;2022-07-23T15:30:29;34.90;51.90
42489;DHT22;28118;52.388;9.452;2022-07-23T15:32:56;30.30;56.50
42489;DHT22;28118;52.388;9.452;2022-07-23T15:35:24;33.00;54.70
42489;DHT22;28118;52.388;9.452;2022-07-23T15:37:51;35.70;52.20
42489;DHT22;28118;52.388;9.452;2022-07-23T15:40:17;37.20;50.50
42489;DHT22;28118;52.388;9.452;2022-07-23T15:42:44;36.00;49.60
42489;DHT22;28118;52.388;9.452;2022-07-23T15:45:11;36.60;50.20
42489;DHT22;28118;52.388;9.452;2022-07-23T15:47:41;37.70;49.70
42489;DHT22;28118;52.388;9.452;2022-07-23T15:50:09;35.60;50.40
42489;DHT22;28118;52.388;9.452;2022-07-23T15:52:36;34.50;52.20
42489;DHT22;28118;52.388;9.452;2022-07-23T15:55:04;34.30;51.00
42489;DHT22;28118;52.388;9.452;2022-07-23T15:57:42;34.70;51.20
42489;DHT22;28118;52.388;9.452;2022-07-23T16:00:10;30.60;53.40
42489;DHT22;28118;52.388;9.452;2022-07-23T16:02:37;28.90;56.50
42489;DHT22;28118;52.388;9.452;2022-07-23T16:05:04;27.70;58.20
42489;DHT22;28118;52.388;9.452;2022-07-23T16:07:51;32.70;55.30
42489;DHT22;28118;52.388;9.452;2022-07-23T16:10:18;33.30;51.60
42489;DHT22;28118;52.388;9.452;2022-07-23T16:12:45;36.30;50.10
42489;DHT22;28118;52.388;9.452;2022-07-23T16:15:11;40.10;47.70
42489;DHT22;28118;52.388;9.452;2022-07-23T16:17:38;41.50;45.50
42489;DHT22;28118;52.388;9.452;2022-07-23T16:20:06;38.60;46.80
42489;DHT22;28118;52.388;9.452;2022-07-23T16:22:35;37.40;47.80
42489;DHT22;28118;52.388;9.452;2022-07-23T16:25:03;38.30;47.40
42489;DHT22;28118;52.388;9.452;2022-07-23T16:27:32;36.80;46.20
42489;DHT22;28118;52.388;9.452;2022-07-23T16:29:59;36.90;48.70
42489;DHT22;28118;52.388;9.452;2022-07-23T16:32:26;36.90;48.10
42489;DHT22;28118;52.388;9.452;2022-07-23T16:34:53;37.60;47.90
42489;DHT22;28118;52.388;9.452;2022-07-23T16:37:20;39.20;46.20
42489;DHT22;28118;52.388;9.452;2022-07-23T16:39:46;38.70;46.00
42489;DHT22;28118;52.388;9.452;2022-07-23T16:42:13;34.50;47.10
42489;DHT22;28118;52.388;9.452;2022-07-23T16:44:40;30.00;53.70
42489;DHT22;28118;52.388;9.452;2022-07-23T16:47:08;34.60;51.20